Time;durP1;ratioP1;P1;durP2;ratioP2;P2;SDS_P1;SDS_P2;PMS_P1;PMS_P2;Temp;Humidity;BMP_temperature;BMP_pressure;BME280_temperature;BME280_humidity;BME280_pressure;Samples;Min_cycle;Max_cycle;Signal;HPM_P1;HPM_P2
2023/06/29 00:04:41;;;;;;;2.10;0.60;;;;;;;15.92;51.89;97943.66;10570833;28;20081;-72
2023/06/29 00:10:03;;;;;;;2.95;0.50;;;;;;;15.91;52.07;97941.44;10567776;28;20044;-71
2023/06/29 00:15:24;;;;;;;2.47;0.60;;;;;;;15.88;51.88;97951.88;10567438;28;20067;-72
2023/06/29 00:20:45;;;;;;;2.42;0.50;;;;;;;15.74;51.83;97954.00;10567381;28;20086;-72
2023/06/29 00:26:06;;;;;;;3.42;0.80;;;;;;;15.76;51.92;97950.53;10552855;28;20043;-72
2023/06/29 00:31:26;;;;;;;2.58;0.90;;;;;;;15.71;52.04;97941.88;10567379;28;20059;-71
2023/06/29 00:36:47;;;;;;;4.18;0.50;;;;;;;15.69;52.13;97949.50;10566075;28;20048;-71
2023/06/29 00:42:08;;;;;;;2.55;0.60;;;;;;;15.69;51.98;97941.78;10567073;28;20040;-71
2023/06/29 00:47:29;;;;;;;4.18;0.65;;;;;;;15.70;52.22;97942.50;10552136;28;20530;-72
2023/06/29 00:52:50;;;;;;;2.10;0.60;;;;;;;15.70;52.21;97934.78;10552164;28;20185;-72
2023/06/29 00:58:11;;;;;;;1.77;0.40;;;;;;;15.73;52.15;97930.75;10566237;28;20071;-72
2023/06/29 01:03:31;;;;;;;4.05;0.73;;;;;;;15.70;52.24;97926.34;10551964;28;20100;-72
2023/06/29 01:09:07;;;;;;;3.45;0.65;;;;;;;15.65;52.36;97929.59;10526038;28;20036;-72
2023/06/29 01:14:30;;;;;;;3.78;0.60;;;;;;;15.61;52.33;97927.31;10553949;28;20056;-72
2023/06/29 01:19:51;;;;;;;3.33;0.73;;;;;;;15.58;52.49;97919.38;10555124;28;20039;-72
2023/06/29 01:25:12;;;;;;;2.45;0.50;;;;;;;15.45;52.20;97923.66;10581351;27;20120;-72
2023/06/29 01:30:39;;;;;;;2.38;0.45;;;;;;;15.29;52.48;97917.19;10602629;27;20465;-71
2023/06/29 01:36:11;;;;;;;2.10;0.63;;;;;;;15.16;52.72;97922.19;10613473;27;20043;-71
2023/06/29 01:41:33;;;;;;;4.25;0.50;;;;;;;15.12;52.96;97921.94;10559125;28;20427;-71
2023/06/29 01:46:54;;;;;;;1.98;0.60;;;;;;;15.11;53.04;97914.88;10615281;27;20477;-71
2023/06/29 01:52:14;;;;;;;2.38;0.52;;;;;;;15.06;52.77;97915.31;10600054;27;20050;-71
2023/06/29 01:57:35;;;;;;;2.45;0.50;;;;;;;14.97;53.22;97913.41;10601592;27;20046;-72
2023/06/29 02:02:55;;;;;;;1.73;0.55;;;;;;;14.91;53.32;97916.63;10594000;27;20050;-71
2023/06/29 02:08:17;;;;;;;2.15;0.60;;;;;;;14.93;53.56;97916.72;10578388;28;20512;-72
2023/06/29 02:13:38;;;;;;;5.38;0.60;;;;;;;14.90;53.70;97909.53;10559232;28;20055;-72
2023/06/29 02:18:59;;;;;;;1.63;0.45;;;;;;;14.82;53.72;97917.53;10558101;28;20073;-71
2023/06/29 02:24:19;;;;;;;1.77;0.50;;;;;;;14.78;53.77;97926.47;10572154;28;20100;-72
2023/06/29 02:29:40;;;;;;;3.25;0.50;;;;;;;14.78;53.90;97931.38;10606794;27;20042;-72
2023/06/29 02:35:01;;;;;;;2.55;0.47;;;;;;;14.79;54.22;97922.31;10599444;27;20043;-71
2023/06/29 02:40:21;;;;;;;4.53;0.68;;;;;;;14.78;54.25;97917.31;10578636;27;20039;-71
2023/06/29 02:45:42;;;;;;;3.72;1.05;;;;;;;14.79;53.96;97930.75;10564109;27;20043;-71
2023/06/29 02:51:05;;;;;;;2.78;0.63;;;;;;;14.75;54.33;97927.72;10585916;27;20488;-72
2023/06/29 02:56:26;;;;;;;2.55;0.70;;;;;;;14.72;54.13;97925.41;10577848;27;20100;-72
2023/06/29 03:01:48;;;;;;;2.63;0.75;;;;;;;14.66;54.73;97923.00;10585965;28;20074;-71
2023/06/29 03:07:09;;;;;;;2.05;0.57;;;;;;;14.63;54.95;97934.75;10596714;27;20035;-71
2023/06/29 03:12:29;;;;;;;1.65;0.52;;;;;;;14.69;54.86;97926.66;10612573;27;20049;-71
2023/06/29 03:17:52;;;;;;;2.53;0.83;;;;;;;14.64;55.22;97931.31;10576725;27;20048;-71
2023/06/29 03:23:13;;;;;;;4.18;0.98;;;;;;;14.57;55.14;97938.72;10569503;28;20066;-72
2023/06/29 03:28:34;;;;;;;2.40;0.88;;;;;;;14.66;55.64;97933.50;10555523;28;20386;-71
2023/06/29 03:33:57;;;;;;;2.45;1.00;;;;;;;14.72;55.49;97936.66;10577681;27;20039;-71
2023/06/29 03:39:19;;;;;;;2.63;1.00;;;;;;;14.71;56.29;97935.19;10608859;27;20127;-72
2023/06/29 03:44:40;;;;;;;4.65;1.02;;;;;;;14.85;56.73;97933.88;10581611;27;20043;-71
2023/06/29 03:50:00;;;;;;;2.38;1.02;;;;;;;15.00;56.85;97935.38;10596136;27;20035;-71
2023/06/29 03:55:24;;;;;;;3.60;1.02;;;;;;;15.09;56.60;97928.09;10567448;27;20095;-71
2023/06/29 04:00:45;;;;;;;5.15;1.10;;;;;;;15.27;56.51;97919.91;10606747;27;20031;-71
2023/06/29 04:06:05;;;;;;;5.57;0.93;;;;;;;15.44;56.28;97936.22;10610186;27;20100;-72
2023/06/29 04:11:26;;;;;;;4.65;1.25;;;;;;;15.61;56.28;97929.38;10610318;27;20524;-71
2023/06/29 04:16:47;;;;;;;1.63;0.63;;;;;;;15.84;56.21;97934.06;10579241;28;20062;-71
2023/06/29 04:22:08;;;;;;;1.73;0.70;;;;;;;16.05;55.97;97933.72;10567691;28;20036;-72
2023/06/29 04:27:31;;;;;;;5.07;0.90;;;;;;;16.13;55.62;97936.19;10582921;27;20046;-73
2023/06/29 04:32:53;;;;;;;2.83;0.85;;;;;;;16.29;55.49;97937.69;10599561;27;20050;-72
2023/06/29 04:38:14;;;;;;;2.97;0.85;;;;;;;16.46;55.11;97935.66;10608246;27;20070;-71
2023/06/29 04:43:36;;;;;;;3.83;1.40;;;;;;;16.65;54.85;97932.34;10550160;28;20115;-72
2023/06/29 04:48:57;;;;;;;5.15;1.52;;;;;;;16.75;54.52;97924.38;10552426;28;20047;-71
2023/06/29 04:54:17;;;;;;;3.28;1.25;;;;;;;17.03;54.30;97930.59;10566615;28;20066;-71
2023/06/29 04:59:38;;;;;;;4.55;1.65;;;;;;;17.27;53.52;97933.03;10552068;28;20062;-72
2023/06/29 05:04:59;;;;;;;6.00;1.80;;;;;;;17.54;53.05;97930.00;10569867;28;20120;-72
2023/06/29 05:10:20;;;;;;;3.22;1.65;;;;;;;17.85;52.53;97934.84;10618442;28;20481;-72
2023/06/29 05:15:41;;;;;;;2.20;1.10;;;;;;;18.32;52.11;97933.94;10594115;28;20039;-73
2023/06/29 05:21:03;;;;;;;3.35;1.42;;;;;;;18.75;51.45;97927.19;10611471;28;20039;-73
2023/06/29 05:26:24;;;;;;;4.80;1.63;;;;;;;19.16;50.67;97929.44;10587008;28;20035;-72
2023/06/29 05:31:45;;;;;;;7.15;1.67;;;;;;;19.63;49.52;97931.13;10590412;28;20084;-72
2023/06/29 05:37:05;;;;;;;7.22;1.42;;;;;;;20.08;48.82;97930.56;10583391;28;20142;-73
2023/06/29 05:42:26;;;;;;;3.10;1.27;;;;;;;20.47;47.54;97929.00;10604707;28;20031;-73
2023/06/29 05:47:47;;;;;;;4.25;1.20;;;;;;;20.76;47.09;97930.59;10605069;28;20054;-76
2023/06/29 05:53:08;;;;;;;5.35;2.08;;;;;;;21.23;45.94;97931.94;10602654;28;20035;-73
2023/06/29 05:58:29;;;;;;;5.47;1.75;;;;;;;21.97;45.23;97924.03;10592999;28;20114;-73
2023/06/29 06:03:50;;;;;;;4.25;0.98;;;;;;;22.65;44.16;97937.78;10607330;28;20047;-74
2023/06/29 06:09:10;;;;;;;8.73;1.08;;;;;;;23.21;43.06;97926.22;10593027;27;20046;-73
2023/06/29 06:14:31;;;;;;;4.00;0.80;;;;;;;23.70;41.55;97927.94;10586066;27;20099;-73
2023/06/29 06:19:53;;;;;;;4.93;0.80;;;;;;;23.59;39.08;97921.31;10586156;27;20043;-74
2023/06/29 06:25:17;;;;;;;2.30;0.60;;;;;;;24.05;37.76;97922.84;10614294;27;20039;-73
2023/06/29 06:30:38;;;;;;;2.25;0.50;;;;;;;24.54;36.74;97915.84;10614523;27;20483;-73
2023/06/29 06:35:59;;;;;;;2.95;0.80;;;;;;;25.19;35.64;97927.44;10614001;27;20061;-74
2023/06/29 06:41:20;;;;;;;3.25;0.57;;;;;;;25.63;34.21;97930.84;10599461;27;20553;-74
2023/06/29 06:46:41;;;;;;;1.77;0.47;;;;;;;25.68;31.72;97923.03;10613631;27;20039;-74
2023/06/29 06:52:02;;;;;;;6.05;0.65;;;;;;;25.53;31.58;97930.00;10613342;27;20095;-74
2023/06/29 06:57:22;;;;;;;3.33;1.20;;;;;;;25.68;31.19;97926.63;10613015;27;20035;-74
2023/06/29 07:02:45;;;;;;;;;;;;;;;25.67;30.47;97921.56;10585086;27;20051;-74
2023/06/29 07:08:06;;;;;;;2.90;0.80;;;;;;;26.03;31.01;97914.81;10612318;27;20392;-74
2023/06/29 07:13:27;;;;;;;3.28;1.05;;;;;;;26.49;29.94;97909.50;10598326;27;20047;-74
2023/06/29 07:19:03;;;;;;;4.35;1.13;;;;;;;26.67;30.37;97903.19;10598028;27;20508;-73
2023/06/29 07:24:44;;;;;;;5.65;1.25;;;;;;;26.73;30.42;97902.47;10603921;27;20043;-74
2023/06/29 07:30:06;;;;;;;6.53;1.02;;;;;;;26.40;30.23;97901.56;10611572;27;20039;-74
2023/06/29 07:35:26;;;;;;;4.88;1.00;;;;;;;26.68;31.05;97886.72;10596990;27;20051;-74
2023/06/29 07:40:47;;;;;;;3.92;1.00;;;;;;;27.36;30.20;97894.94;10596869;27;20122;-74
2023/06/29 07:46:09;;;;;;;4.63;1.20;;;;;;;27.06;30.07;97877.63;10611097;27;20589;-73
2023/06/29 07:51:33;;;;;;;3.63;0.70;;;;;;;27.46;29.80;97888.53;10610870;27;20039;-74
2023/06/29 07:56:53;;;;;;;4.35;0.82;;;;;;;27.56;29.29;97884.97;10597110;27;20561;-74
2023/06/29 08:02:17;;;;;;;3.28;1.13;;;;;;;28.02;29.16;97878.63;10582711;27;20055;-74
2023/06/29 08:07:38;;;;;;;4.03;0.70;;;;;;;28.60;27.67;97862.81;10596396;27;20066;-74
2023/06/29 08:13:01;;;;;;;2.25;0.40;;;;;;;28.93;27.32;97877.09;10625399;27;20039;-74
2023/06/29 08:18:25;;;;;;;2.90;0.52;;;;;;;29.90;26.44;97865.09;10597131;27;20043;-74
2023/06/29 08:23:49;;;;;;;2.42;0.50;;;;;;;30.66;26.06;97861.59;10609904;27;20380;-74
2023/06/29 08:29:10;;;;;;;3.35;0.68;;;;;;;31.41;24.97;97860.72;10596162;27;20050;-74
2023/06/29 08:34:30;;;;;;;4.80;0.70;;;;;;;31.32;24.87;97856.53;10624234;27;20152;-74
2023/06/29 08:39:52;;;;;;;2.60;0.50;;;;;;;31.84;24.47;97845.69;10624508;27;20043;-74
2023/06/29 08:45:13;;;;;;;1.63;0.35;;;;;;;32.05;23.53;97855.47;10595144;27;20646;-74
2023/06/29 08:50:34;;;;;;;3.23;0.97;;;;;;;32.43;22.84;97850.53;10608766;27;20047;-75
2023/06/29 08:55:56;;;;;;;1.13;0.40;;;;;;;32.25;22.44;97848.66;10608919;27;20065;-74
2023/06/29 09:01:17;;;;;;;1.60;0.45;;;;;;;32.18;22.22;97841.53;10594432;27;20054;-73
2023/06/29 09:06:40;;;;;;;14.93;2.00;;;;;;;32.07;21.76;97841.00;10593882;27;20075;-74
2023/06/29 09:12:01;;;;;;;3.00;0.90;;;;;;;31.53;21.81;97836.75;10580591;28;20045;-74
2023/06/29 09:17:23;;;;;;;2.40;0.50;;;;;;;31.68;21.58;97837.28;10623581;28;20043;-74
2023/06/29 09:22:46;;;;;;;1.45;0.45;;;;;;;31.34;21.30;97839.19;10594287;28;20481;-74
2023/06/29 09:28:07;;;;;;;4.05;0.40;;;;;;;30.89;21.57;97836.88;10593814;28;20072;-74
2023/06/29 09:33:29;;;;;;;3.45;0.70;;;;;;;30.64;21.53;97830.66;10594018;28;20488;-73
2023/06/29 09:38:50;;;;;;;3.42;0.40;;;;;;;30.41;22.48;97830.16;10623103;28;20035;-74
2023/06/29 09:44:14;;;;;;;5.18;0.60;;;;;;;30.68;21.82;97807.56;10565849;27;20051;-74
2023/06/29 09:49:48;;;;;;;1.45;0.50;;;;;;;30.17;22.35;97813.09;10601926;27;20041;-73
2023/06/29 09:55:10;;;;;;;4.35;0.70;;;;;;;30.18;22.34;97815.25;10587903;27;20162;-73
2023/06/29 10:00:32;;;;;;;1.67;0.47;;;;;;;30.84;21.94;97806.66;10601477;27;20039;-74
2023/06/29 10:05:56;;;;;;;3.47;0.70;;;;;;;30.43;21.65;97807.09;10599114;27;20055;-74
2023/06/29 10:11:17;;;;;;;3.30;0.55;;;;;;;30.51;21.93;97809.19;10582873;27;20058;-74
2023/06/29 10:16:40;;;;;;;1.20;0.45;;;;;;;30.53;21.66;97791.16;10613154;27;20108;-74
2023/06/29 10:22:06;;;;;;;1.65;0.47;;;;;;;30.39;22.15;97786.25;10600341;27;20039;-74
2023/06/29 10:27:28;;;;;;;2.40;0.60;;;;;;;30.72;21.72;97778.72;10614428;27;20043;-74
2023/06/29 10:32:50;;;;;;;2.22;0.60;;;;;;;30.60;21.86;97778.13;10629388;27;20045;-75
2023/06/29 10:38:14;;;;;;;;;;;;;;;30.65;22.42;97770.88;10629949;27;20484;-74
2023/06/29 10:43:55;;;;;;;2.83;0.65;;;;;;;30.90;21.73;97754.00;10600193;27;19919;-74
2023/06/29 10:49:23;;;;;;;3.17;0.50;;;;;;;30.36;22.05;97753.91;10628932;27;20039;-74
2023/06/29 10:54:44;;;;;;;1.45;0.60;;;;;;;30.31;22.00;97758.28;10613656;27;20481;-75
2023/06/29 11:00:05;;;;;;;2.85;0.70;;;;;;;30.58;22.47;97746.44;10598684;27;20039;-76
2023/06/29 11:05:28;;;;;;;1.20;0.60;;;;;;;31.04;21.52;97734.34;10598571;27;20055;-76
2023/06/29 11:10:50;;;;;;;1.65;0.63;;;;;;;31.48;21.53;97725.81;10613012;27;20065;-76
2023/06/29 11:16:11;;;;;;;1.17;0.50;;;;;;;31.65;21.32;97726.94;10584297;27;20054;-75
2023/06/29 11:21:32;;;;;;;3.40;0.50;;;;;;;32.24;20.80;97717.28;10597828;27;20047;-75
2023/06/29 11:26:53;;;;;;;2.40;0.60;;;;;;;32.38;20.16;97711.25;10627199;27;20058;-76
2023/06/29 11:32:15;;;;;;;2.80;0.47;;;;;;;32.03;19.92;97708.28;10611720;27;20124;-76
2023/06/29 11:37:38;;;;;;;3.92;0.50;;;;;;;30.87;20.63;97706.50;10611833;27;20046;-75
2023/06/29 11:43:00;;;;;;;1.88;0.43;;;;;;;30.97;19.97;97691.94;10611701;27;20441;-75
2023/06/29 11:48:22;;;;;;;1.67;0.52;;;;;;;30.73;20.53;97696.59;10610914;27;20118;-76
2023/06/29 11:53:43;;;;;;;1.70;0.40;;;;;;;31.00;20.94;97696.94;10582548;27;20036;-76
2023/06/29 11:59:09;;;;;;;1.48;0.50;;;;;;;31.61;20.48;97693.13;10610860;27;20047;-75
2023/06/29 12:04:31;;;;;;;2.80;0.63;;;;;;;31.37;19.82;97687.06;10596603;27;20058;-76
2023/06/29 12:09:53;;;;;;;2.22;0.50;;;;;;;31.53;20.26;97686.78;10609703;27;20531;-76
2023/06/29 12:15:19;;;;;;;1.67;0.60;;;;;;;31.12;19.90;97672.28;10596173;27;20070;-76
2023/06/29 12:20:42;;;;;;;1.35;0.43;;;;;;;30.97;20.19;97668.88;10595802;27;20043;-76
2023/06/29 12:26:04;;;;;;;3.20;0.57;;;;;;;30.84;20.97;97656.84;10609948;27;20118;-75
2023/06/29 12:31:26;;;;;;;2.65;0.50;;;;;;;30.59;21.25;97658.59;10595394;27;20438;-76
2023/06/29 12:36:48;;;;;;;1.40;0.50;;;;;;;30.46;20.75;97638.59;10608907;27;20051;-76
2023/06/29 12:42:09;;;;;;;1.83;0.40;;;;;;;30.59;21.80;97641.31;10594939;27;20039;-75
2023/06/29 12:47:31;;;;;;;2.33;0.55;;;;;;;30.57;21.37;97633.41;10609012;27;20093;-76
2023/06/29 12:52:52;;;;;;;;;;;;;;;30.72;21.55;97633.97;10609235;27;20031;-75
2023/06/29 12:58:13;;;;;;;2.47;0.52;;;;;;;30.81;21.16;97629.53;10623724;27;20361;-76
2023/06/29 13:03:34;;;;;;;1.77;0.60;;;;;;;30.30;21.43;97627.28;10593906;27;20510;-76
2023/06/29 13:08:55;;;;;;;1.30;0.45;;;;;;;29.79;21.40;97616.34;10593868;28;20126;-76
2023/06/29 13:14:17;;;;;;;1.48;0.80;;;;;;;29.87;21.68;97622.03;10608443;28;20388;-76
2023/06/29 13:19:39;;;;;;;1.43;0.60;;;;;;;29.74;22.00;97612.13;10609917;27;20087;-76
2023/06/29 13:25:00;;;;;;;6.15;0.60;;;;;;;29.57;22.56;97608.69;10588289;27;20484;-76
2023/06/29 13:30:21;;;;;;;2.60;0.70;;;;;;;29.85;22.22;97599.03;10588426;27;20039;-76
2023/06/29 13:35:43;;;;;;;2.90;0.60;;;;;;;30.32;22.49;97597.78;10602370;27;20127;-76
2023/06/29 13:41:04;;;;;;;;;;;;;;;29.90;22.30;97594.66;10616800;27;20070;-76
2023/06/29 13:46:26;;;;;;;1.98;0.70;;;;;;;30.29;22.48;97590.63;10631212;27;19919;-76
2023/06/29 13:51:47;;;;;;;4.30;0.60;;;;;;;30.36;22.12;97581.16;10616362;27;20067;-76
2023/06/29 13:57:10;;;;;;;2.78;0.63;;;;;;;30.66;21.73;97576.44;10615601;27;20477;-75
2023/06/29 14:02:31;;;;;;;1.95;0.70;;;;;;;30.55;22.10;97581.63;10615519;27;20489;-76
2023/06/29 14:07:52;;;;;;;0.95;0.43;;;;;;;30.15;22.09;97574.25;10601257;27;20045;-75
2023/06/29 14:13:13;;;;;;;2.20;0.80;;;;;;;29.90;22.18;97568.06;10630154;27;20057;-76
2023/06/29 14:18:35;;;;;;;3.17;0.55;;;;;;;30.13;22.28;97562.78;10630253;27;20047;-74
2023/06/29 14:23:56;;;;;;;4.93;0.52;;;;;;;30.29;21.79;97556.78;10614610;27;20046;-76
2023/06/29 14:29:18;;;;;;;2.58;0.50;;;;;;;30.21;22.04;97556.91;10614354;27;20118;-76
2023/06/29 14:34:39;;;;;;;2.58;0.60;;;;;;;29.92;21.67;97542.16;10599461;27;20088;-76
2023/06/29 14:40:02;;;;;;;2.60;0.50;;;;;;;29.04;22.61;97542.31;10614039;27;20066;-76
2023/06/29 14:45:23;;;;;;;1.05;0.70;;;;;;;28.74;22.93;97529.63;10614380;27;20079;-76
2023/06/29 14:50:44;;;;;;;3.28;0.90;;;;;;;28.05;23.96;97523.59;10599223;27;20035;-75
2023/06/29 14:56:08;;;;;;;2.10;0.80;;;;;;;27.99;24.14;97530.09;10613387;27;20050;-77
2023/06/29 15:01:32;;;;;;;1.95;0.73;;;;;;;27.66;24.39;97530.22;10598978;27;20488;-76
2023/06/29 15:06:53;;;;;;;3.55;0.80;;;;;;;27.72;24.47;97517.31;10613108;27;20047;-76
2023/06/29 15:12:13;;;;;;;3.00;0.80;;;;;;;27.91;24.47;97512.91;10612614;27;20035;-76
2023/06/29 15:17:34;;;;;;;2.58;0.77;;;;;;;27.89;24.48;97510.03;10627927;27;20077;-76
2023/06/29 15:22:55;;;;;;;3.47;0.68;;;;;;;27.85;24.74;97507.91;10612523;27;20227;-76
2023/06/29 15:28:16;;;;;;;1.35;0.60;;;;;;;27.54;24.55;97492.97;10569554;27;20504;-75
2023/06/29 15:33:37;;;;;;;1.93;0.70;;;;;;;27.38;24.98;97495.88;10627334;27;20039;-73
2023/06/29 15:38:58;;;;;;;2.85;0.65;;;;;;;27.29;25.13;97498.06;10597427;27;20062;-74
2023/06/29 15:44:19;;;;;;;3.37;0.83;;;;;;;27.49;25.00;97473.63;10610681;27;20121;-76
2023/06/29 15:49:40;;;;;;;1.52;0.60;;;;;;;27.61;24.98;97476.47;10611124;27;20194;-76
2023/06/29 15:55:04;;;;;;;3.57;0.80;;;;;;;27.58;24.86;97475.75;10601266;27;20039;-73
2023/06/29 16:00:28;;;;;;;3.65;0.65;;;;;;;27.67;25.12;97470.72;10601104;27;20126;-74
2023/06/29 16:05:49;;;;;;;1.60;0.70;;;;;;;27.43;25.72;97465.78;10579964;27;20047;-71
2023/06/29 16:11:10;;;;;;;2.33;0.70;;;;;;;27.16;26.66;97461.56;10595357;27;20039;-69
2023/06/29 16:16:32;;;;;;;2.47;0.90;;;;;;;27.05;26.91;97461.59;10616424;27;20047;-69
2023/06/29 16:21:53;;;;;;;1.50;0.63;;;;;;;27.13;26.81;97451.56;10587733;27;20061;-70
2023/06/29 16:27:15;;;;;;;4.47;0.73;;;;;;;27.31;26.91;97443.63;10586961;27;20047;-71
2023/06/29 16:32:37;;;;;;;1.77;0.80;;;;;;;27.32;26.71;97439.31;10589449;27;20097;-70
2023/06/29 16:38:01;;;;;;;4.47;0.70;;;;;;;27.17;26.90;97428.63;10588902;27;20055;-73
2023/06/29 16:43:22;;;;;;;1.90;0.80;;;;;;;27.08;26.77;97425.78;10594066;27;20078;-73
2023/06/29 16:48:56;;;;;;;4.70;0.85;;;;;;;26.77;27.00;97424.41;10602182;27;20472;-71
2023/06/29 16:54:17;;;;;;;2.45;0.60;;;;;;;26.52;27.62;97423.69;10599303;27;20050;-74
2023/06/29 16:59:40;;;;;;;3.67;0.82;;;;;;;26.30;27.65;97427.25;10578996;27;20031;-73
2023/06/29 17:05:03;;;;;;;4.38;0.70;;;;;;;26.24;28.26;97418.66;10576378;27;20043;-71
2023/06/29 17:10:26;;;;;;;1.67;0.60;;;;;;;26.15;28.01;97414.38;10622848;27;20047;-74
2023/06/29 17:15:49;;;;;;;1.83;0.60;;;;;;;26.09;28.77;97422.97;10591303;28;20039;-74
2023/06/29 17:21:10;;;;;;;2.47;0.75;;;;;;;25.98;28.54;97415.78;10618266;28;20437;-73
2023/06/29 17:26:34;;;;;;;1.77;0.60;;;;;;;25.92;29.08;97407.91;10584219;28;20039;-72
2023/06/29 17:31:55;;;;;;;2.03;0.90;;;;;;;25.88;28.97;97402.91;10591051;28;20035;-70
2023/06/29 17:37:17;;;;;;;1.92;0.75;;;;;;;25.84;28.85;97407.91;10591624;27;20058;-72
2023/06/29 17:42:38;;;;;;;4.10;0.85;;;;;;;25.71;28.81;97404.31;10616512;28;20062;-71
2023/06/29 17:48:01;;;;;;;4.28;0.80;;;;;;;25.64;29.07;97403.53;10582620;28;20393;-71
2023/06/29 17:53:21;;;;;;;2.13;0.63;;;;;;;25.60;29.36;97406.41;10541974;28;20050;-72
2023/06/29 17:58:43;;;;;;;3.08;0.85;;;;;;;25.53;29.24;97395.66;10564820;28;20141;-71
2023/06/29 18:04:04;;;;;;;4.20;1.20;;;;;;;25.38;29.66;97392.75;10553693;28;20113;-72
2023/06/29 18:09:26;;;;;;;4.30;1.08;;;;;;;25.29;29.83;97399.88;10557217;28;20687;-72
2023/06/29 18:14:47;;;;;;;5.50;1.02;;;;;;;25.11;30.27;97403.34;10536883;27;20069;-72
2023/06/29 18:20:12;;;;;;;5.25;1.10;;;;;;;24.97;30.62;97393.97;10572416;28;20039;-72
2023/06/29 18:25:33;;;;;;;4.68;0.90;;;;;;;24.81;30.98;97406.75;10557257;28;20039;-69
2023/06/29 18:30:54;;;;;;;3.50;0.88;;;;;;;24.68;31.20;97405.22;10571117;28;20401;-73
2023/06/29 18:36:14;;;;;;;1.90;1.02;;;;;;;24.51;31.28;97407.25;10570669;28;20495;-70
2023/06/29 18:41:36;;;;;;;1.60;0.80;;;;;;;24.37;31.46;97397.88;10547389;28;20040;-71
2023/06/29 18:47:23;;;;;;;2.45;0.93;;;;;;;24.24;31.91;97402.75;10556271;28;20473;-72
2023/06/29 18:52:44;;;;;;;5.38;0.80;;;;;;;24.09;32.09;97389.75;10569959;28;20040;-69
2023/06/29 18:58:06;;;;;;;4.63;0.90;;;;;;;23.96;32.17;97397.50;10562549;28;20071;-72
2023/06/29 19:03:27;;;;;;;3.83;0.85;;;;;;;23.83;32.59;97393.78;10536295;27;20066;-74
2023/06/29 19:08:48;;;;;;;3.20;0.93;;;;;;;23.74;32.75;97388.72;10601664;27;20096;-72
2023/06/29 19:14:09;;;;;;;2.10;0.75;;;;;;;23.64;32.83;97406.41;10571551;27;20062;-72
2023/06/29 19:19:30;;;;;;;2.53;1.00;;;;;;;23.49;33.38;97405.53;10605099;27;20112;-71
2023/06/29 19:24:51;;;;;;;2.45;0.80;;;;;;;23.41;33.66;97409.00;10557893;27;20621;-72
2023/06/29 19:30:11;;;;;;;3.33;0.90;;;;;;;23.34;33.86;97403.91;10598484;27;20411;-72
2023/06/29 19:35:32;;;;;;;2.28;1.00;;;;;;;23.26;34.03;97409.53;10586146;27;20059;-71
2023/06/29 19:40:53;;;;;;;3.35;1.10;;;;;;;23.18;34.02;97407.31;10609974;27;20499;-73
2023/06/29 19:46:15;;;;;;;3.92;1.25;;;;;;;23.09;34.69;97420.72;10584050;27;20041;-70
2023/06/29 19:51:38;;;;;;;7.05;1.10;;;;;;;22.96;35.07;97424.78;10593827;27;20067;-71
2023/06/29 19:57:00;;;;;;;4.90;0.90;;;;;;;22.88;35.10;97430.41;10550683;27;20093;-73
2023/06/29 20:02:20;;;;;;;2.22;0.75;;;;;;;22.81;35.62;97428.84;10571226;27;20404;-72
2023/06/29 20:07:41;;;;;;;2.78;1.00;;;;;;;22.74;35.47;97433.72;10609190;27;20099;-79
2023/06/29 20:13:02;;;;;;;4.22;1.25;;;;;;;22.69;35.71;97437.19;10595658;27;20043;-70
2023/06/29 20:18:25;;;;;;;5.43;1.20;;;;;;;22.63;35.87;97437.09;10594123;27;20126;-71
2023/06/29 20:23:50;;;;;;;5.50;0.82;;;;;;;22.52;36.03;97436.22;10566721;28;20092;-72
2023/06/29 20:29:11;;;;;;;2.97;1.40;;;;;;;22.34;36.23;97438.78;10596352;27;20046;-71
2023/06/29 20:34:33;;;;;;;2.42;1.08;;;;;;;22.14;36.67;97444.84;10603387;27;20159;-70
2023/06/29 20:39:54;;;;;;;3.33;1.10;;;;;;;21.97;37.23;97430.31;10571728;27;20066;-72
2023/06/29 20:45:14;;;;;;;4.40;1.30;;;;;;;21.89;37.05;97430.16;10593574;27;20046;-72
2023/06/29 20:50:35;;;;;;;3.53;0.98;;;;;;;21.79;37.57;97421.44;10597236;27;20047;-72
2023/06/29 20:55:56;;;;;;;4.93;1.30;;;;;;;21.69;37.79;97426.94;10600927;27;20111;-71
2023/06/29 21:01:18;;;;;;;4.25;1.10;;;;;;;21.57;38.04;97421.75;10608133;27;20389;-74
2023/06/29 21:06:38;;;;;;;2.63;1.00;;;;;;;21.51;38.40;97440.78;10579442;27;20373;-74
2023/06/29 21:11:59;;;;;;;1.30;0.80;;;;;;;21.42;38.44;97434.97;10588073;27;20093;-72
2023/06/29 21:17:20;;;;;;;3.33;1.08;;;;;;;21.38;38.79;97439.84;10620193;28;20450;-73
2023/06/29 21:22:42;;;;;;;4.38;1.10;;;;;;;21.29;38.97;97443.91;10589784;28;20058;-72
2023/06/29 21:28:03;;;;;;;2.45;1.00;;;;;;;21.22;39.66;97440.19;10621390;28;20081;-73
2023/06/29 21:33:27;;;;;;;3.17;1.52;;;;;;;21.13;39.67;97436.47;10600949;28;20046;-73
2023/06/29 21:38:47;;;;;;;3.38;1.10;;;;;;;21.08;39.71;97431.38;10615567;28;20047;-73
2023/06/29 21:44:11;;;;;;;3.53;1.05;;;;;;;21.05;40.19;97416.44;10614707;27;20050;-74
2023/06/29 21:49:32;;;;;;;4.47;1.38;;;;;;;21.01;40.15;97421.31;10580428;28;20043;-72
2023/06/29 21:54:52;;;;;;;5.68;1.00;;;;;;;20.95;40.39;97426.84;10598617;27;20069;-72
2023/06/29 22:00:13;;;;;;;2.63;1.23;;;;;;;20.91;40.66;97421.09;10615756;27;20165;-73
2023/06/29 22:05:34;;;;;;;4.57;0.88;;;;;;;20.88;40.92;97419.59;10594677;27;20086;-72
2023/06/29 22:10:56;;;;;;;2.22;1.08;;;;;;;20.85;40.89;97428.06;10545769;28;20071;-73
2023/06/29 22:16:20;;;;;;;4.00;1.02;;;;;;;20.82;41.08;97429.41;10531107;28;20132;-72
2023/06/29 22:21:41;;;;;;;1.52;0.80;;;;;;;20.82;41.34;97428.69;10534160;28;20110;-73
2023/06/29 22:27:03;;;;;;;4.70;1.13;;;;;;;20.82;41.60;97418.06;10519905;28;20051;-73
2023/06/29 22:32:24;;;;;;;1.92;0.77;;;;;;;20.77;41.90;97415.81;10540704;28;20510;-73
2023/06/29 22:37:45;;;;;;;6.15;2.38;;;;;;;20.69;41.94;97405.00;10522618;28;20431;-73
2023/06/29 22:43:05;;;;;;;5.35;3.45;;;;;;;20.57;42.11;97404.75;10545490;28;20522;-73
2023/06/29 22:48:26;;;;;;;1.75;1.05;;;;;;;20.50;42.65;97403.16;10583706;28;20490;-73
2023/06/29 22:53:47;;;;;;;3.28;1.00;;;;;;;20.45;43.04;97399.50;10554039;28;20489;-72
2023/06/29 22:59:08;;;;;;;3.15;1.20;;;;;;;20.44;43.31;97403.72;10522874;28;20074;-73
2023/06/29 23:04:30;;;;;;;4.05;1.38;;;;;;;20.41;43.40;97393.72;10548130;27;20450;-72
2023/06/29 23:09:51;;;;;;;4.63;1.30;;;;;;;20.34;43.65;97403.47;10570404;28;20067;-72
2023/06/29 23:15:15;;;;;;;7.53;2.05;;;;;;;20.26;44.21;97398.31;10577006;27;20446;-73
2023/06/29 23:20:36;;;;;;;5.45;1.50;;;;;;;20.19;44.21;97390.34;10570302;28;20382;-73
2023/06/29 23:25:57;;;;;;;5.78;1.50;;;;;;;20.18;44.50;97395.31;10563106;27;20406;-73
2023/06/29 23:31:20;;;;;;;3.97;1.65;;;;;;;20.25;44.79;97379.88;10596993;27;20093;-72
2023/06/29 23:36:41;;;;;;;5.85;2.20;;;;;;;20.41;44.36;97384.50;10593623;27;20123;-74
2023/06/29 23:42:02;;;;;;;7.35;2.15;;;;;;;20.52;44.70;97372.00;10611751;27;20453;-73
2023/06/29 23:47:22;;;;;;;5.43;1.90;;;;;;;20.64;44.68;97380.78;10592608;27;20067;-74
2023/06/29 23:52:43;;;;;;;5.30;2.20;;;;;;;20.66;44.53;97380.84;10584011;28;20047;-73
2023/06/29 23:58:04;;;;;;;5.63;1.70;;;;;;;20.61;44.51;97376.47;10544214;28;20044;-73
